sensor_id;sensor_type;location;lat;lon;timestamp;P1;durP1;ratioP1;P2;durP2;ratioP2
6495;SDS011;3281;47.658;9.166;2022-08-19T00:01:18;0.00;;;0.00;;
6495;SDS011;3281;47.658;9.166;2022-08-19T00:03:45;0.00;;;0.00;;
6495;SDS011;3281;47.658;9.166;2022-08-19T00:06:12;0.00;;;0.00;;
6495;SDS011;3281;47.658;9.166;2022-08-19T00:08:39;0.00;;;0.00;;
6495;SDS011;3281;47.658;9.166;2022-08-19T00:11:06;0.00;;;0.00;;
6495;SDS011;3281;47.658;9.166;2022-08-19T00:13:33;0.00;;;0.00;;
6495;SDS011;3281;47.658;9.166;2022-08-19T00:16:00;0.00;;;0.00;;
6495;SDS011;3281;47.658;9.166;2022-08-19T00:18:29;0.00;;;0.00;;
6495;SDS011;3281;47.658;9.166;2022-08-19T00:20:57;0.00;;;0.00;;
6495;SDS011;3281;47.658;9.166;2022-08-19T00:23:24;0.00;;;0.00;;
6495;SDS011;3281;47.658;9.166;2022-08-19T00:25:51;0.00;;;0.00;;
6495;SDS011;3281;47.658;9.166;2022-08-19T00:28:18;0.00;;;0.00;;
6495;SDS011;3281;47.658;9.166;2022-08-19T00:30:45;0.00;;;0.00;;
6495;SDS011;3281;47.658;9.166;2022-08-19T00:33:12;0.00;;;0.00;;
6495;SDS011;3281;47.658;9.166;2022-08-19T00:35:42;0.00;;;0.00;;
6495;SDS011;3281;47.658;9.166;2022-08-19T00:38:09;0.00;;;0.00;;
6495;SDS011;3281;47.658;9.166;2022-08-19T00:40:36;0.00;;;0.00;;
6495;SDS011;3281;47.658;9.166;2022-08-19T00:43:07;0.00;;;0.00;;
6495;SDS011;3281;47.658;9.166;2022-08-19T00:45:35;0.00;;;0.00;;
6495;SDS011;3281;47.658;9.166;2022-08-19T00:48:02;0.00;;;0.00;;
6495;SDS011;3281;47.658;9.166;2022-08-19T00:50:29;0.00;;;0.00;;
6495;SDS011;3281;47.658;9.166;2022-08-19T00:52:58;0.00;;;0.00;;
6495;SDS011;3281;47.658;9.166;2022-08-19T00:55:29;0.00;;;0.00;;
6495;SDS011;3281;47.658;9.166;2022-08-19T00:57:59;0.00;;;0.00;;
6495;SDS011;3281;47.658;9.166;2022-08-19T01:00:29;0.00;;;0.00;;
6495;SDS011;3281;47.658;9.166;2022-08-19T01:02:57;0.00;;;0.00;;
6495;SDS011;3281;47.658;9.166;2022-08-19T01:05:25;0.00;;;0.00;;
6495;SDS011;3281;47.658;9.166;2022-08-19T01:07:54;0.00;;;0.00;;
6495;SDS011;3281;47.658;9.166;2022-08-19T01:10:25;0.00;;;0.00;;
6495;SDS011;3281;47.658;9.166;2022-08-19T01:12:55;0.00;;;0.00;;
6495;SDS011;3281;47.658;9.166;2022-08-19T01:15:26;0.00;;;0.00;;
6495;SDS011;3281;47.658;9.166;2022-08-19T01:17:58;0.00;;;0.00;;
6495;SDS011;3281;47.658;9.166;2022-08-19T01:20:30;0.00;;;0.00;;
6495;SDS011;3281;47.658;9.166;2022-08-19T01:23:00;0.00;;;0.00;;
6495;SDS011;3281;47.658;9.166;2022-08-19T01:25:29;0.00;;;0.00;;
6495;SDS011;3281;47.658;9.166;2022-08-19T01:27:58;0.00;;;0.00;;
6495;SDS011;3281;47.658;9.166;2022-08-19T01:30:27;0.00;;;0.00;;
6495;SDS011;3281;47.658;9.166;2022-08-19T01:32:55;0.10;;;0.10;;
6495;SDS011;3281;47.658;9.166;2022-08-19T01:35:25;0.00;;;0.00;;
6495;SDS011;3281;47.658;9.166;2022-08-19T01:37:54;0.00;;;0.00;;
6495;SDS011;3281;47.658;9.166;2022-08-19T01:40:26;0.10;;;0.10;;
6495;SDS011;3281;47.658;9.166;2022-08-19T01:42:55;0.00;;;0.00;;
6495;SDS011;3281;47.658;9.166;2022-08-19T01:45:24;0.00;;;0.00;;
6495;SDS011;3281;47.658;9.166;2022-08-19T01:47:53;0.10;;;0.10;;
6495;SDS011;3281;47.658;9.166;2022-08-19T01:50:21;0.00;;;0.00;;
6495;SDS011;3281;47.658;9.166;2022-08-19T01:52:48;0.00;;;0.00;;
6495;SDS011;3281;47.658;9.166;2022-08-19T01:55:17;0.00;;;0.00;;
6495;SDS011;3281;47.658;9.166;2022-08-19T01:57:47;0.77;;;0.77;;
6495;SDS011;3281;47.658;9.166;2022-08-19T02:00:18;0.00;;;0.00;;
6495;SDS011;3281;47.658;9.166;2022-08-19T02:02:47;0.10;;;0.10;;
6495;SDS011;3281;47.658;9.166;2022-08-19T02:05:13;0.00;;;0.00;;
6495;SDS011;3281;47.658;9.166;2022-08-19T02:07:44;0.10;;;0.10;;
6495;SDS011;3281;47.658;9.166;2022-08-19T02:10:12;0.00;;;0.00;;
6495;SDS011;3281;47.658;9.166;2022-08-19T02:12:41;0.00;;;0.00;;
6495;SDS011;3281;47.658;9.166;2022-08-19T02:15:09;0.00;;;0.00;;
6495;SDS011;3281;47.658;9.166;2022-08-19T02:17:37;0.00;;;0.00;;
6495;SDS011;3281;47.658;9.166;2022-08-19T02:20:04;0.00;;;0.00;;
6495;SDS011;3281;47.658;9.166;2022-08-19T02:22:32;0.00;;;0.00;;
6495;SDS011;3281;47.658;9.166;2022-08-19T02:25:00;0.00;;;0.00;;
6495;SDS011;3281;47.658;9.166;2022-08-19T02:27:27;0.00;;;0.00;;
6495;SDS011;3281;47.658;9.166;2022-08-19T02:29:54;0.13;;;0.13;;
6495;SDS011;3281;47.658;9.166;2022-08-19T02:32:22;0.00;;;0.00;;
6495;SDS011;3281;47.658;9.166;2022-08-19T02:34:49;0.00;;;0.00;;
6495;SDS011;3281;47.658;9.166;2022-08-19T02:37:15;0.00;;;0.00;;
6495;SDS011;3281;47.658;9.166;2022-08-19T02:39:56;0.00;;;0.00;;
6495;SDS011;3281;47.658;9.166;2022-08-19T02:42:23;0.00;;;0.00;;
6495;SDS011;3281;47.658;9.166;2022-08-19T02:44:51;0.00;;;0.00;;
6495;SDS011;3281;47.658;9.166;2022-08-19T02:47:18;0.40;;;0.40;;
6495;SDS011;3281;47.658;9.166;2022-08-19T02:49:46;0.00;;;0.00;;
6495;SDS011;3281;47.658;9.166;2022-08-19T02:52:14;0.00;;;0.00;;
6495;SDS011;3281;47.658;9.166;2022-08-19T02:54:41;0.00;;;0.00;;
6495;SDS011;3281;47.658;9.166;2022-08-19T02:57:08;0.00;;;0.00;;
6495;SDS011;3281;47.658;9.166;2022-08-19T02:59:35;0.00;;;0.00;;
6495;SDS011;3281;47.658;9.166;2022-08-19T03:02:02;1.43;;;1.43;;
6495;SDS011;3281;47.658;9.166;2022-08-19T03:04:29;0.00;;;0.00;;
6495;SDS011;3281;47.658;9.166;2022-08-19T03:06:57;0.33;;;0.33;;
6495;SDS011;3281;47.658;9.166;2022-08-19T03:09:24;0.53;;;0.53;;
6495;SDS011;3281;47.658;9.166;2022-08-19T03:11:51;0.23;;;0.23;;
6495;SDS011;3281;47.658;9.166;2022-08-19T03:14:17;0.60;;;0.60;;
6495;SDS011;3281;47.658;9.166;2022-08-19T03:16:46;0.10;;;0.10;;
6495;SDS011;3281;47.658;9.166;2022-08-19T03:19:15;1.37;;;1.37;;
6495;SDS011;3281;47.658;9.166;2022-08-19T03:21:43;0.40;;;0.40;;
6495;SDS011;3281;47.658;9.166;2022-08-19T03:24:12;0.07;;;0.07;;
6495;SDS011;3281;47.658;9.166;2022-08-19T03:26:40;0.10;;;0.10;;
6495;SDS011;3281;47.658;9.166;2022-08-19T03:29:10;0.10;;;0.10;;
6495;SDS011;3281;47.658;9.166;2022-08-19T03:31:38;1.03;;;1.03;;
6495;SDS011;3281;47.658;9.166;2022-08-19T03:34:08;0.20;;;0.20;;
6495;SDS011;3281;47.658;9.166;2022-08-19T03:36:35;0.83;;;0.83;;
6495;SDS011;3281;47.658;9.166;2022-08-19T03:39:02;0.60;;;0.60;;
6495;SDS011;3281;47.658;9.166;2022-08-19T03:41:32;0.30;;;0.30;;
6495;SDS011;3281;47.658;9.166;2022-08-19T03:44:02;1.00;;;1.00;;
6495;SDS011;3281;47.658;9.166;2022-08-19T03:46:31;0.87;;;0.87;;
6495;SDS011;3281;47.658;9.166;2022-08-19T03:48:59;1.37;;;1.30;;
6495;SDS011;3281;47.658;9.166;2022-08-19T03:51:29;0.33;;;0.33;;
6495;SDS011;3281;47.658;9.166;2022-08-19T03:53:57;0.27;;;0.27;;
6495;SDS011;3281;47.658;9.166;2022-08-19T03:56:26;0.67;;;0.67;;
6495;SDS011;3281;47.658;9.166;2022-08-19T03:58:55;0.40;;;0.40;;
6495;SDS011;3281;47.658;9.166;2022-08-19T04:01:23;0.20;;;0.20;;
6495;SDS011;3281;47.658;9.166;2022-08-19T04:03:52;0.00;;;0.00;;
6495;SDS011;3281;47.658;9.166;2022-08-19T04:06:20;0.10;;;0.10;;
6495;SDS011;3281;47.658;9.166;2022-08-19T04:08:49;0.27;;;0.27;;
6495;SDS011;3281;47.658;9.166;2022-08-19T04:11:19;0.30;;;0.30;;
6495;SDS011;3281;47.658;9.166;2022-08-19T04:13:48;0.20;;;0.20;;
6495;SDS011;3281;47.658;9.166;2022-08-19T04:16:17;3.63;;;3.30;;
6495;SDS011;3281;47.658;9.166;2022-08-19T04:18:46;4.20;;;3.83;;
6495;SDS011;3281;47.658;9.166;2022-08-19T04:21:15;0.20;;;0.20;;
6495;SDS011;3281;47.658;9.166;2022-08-19T04:23:42;0.23;;;0.23;;
6495;SDS011;3281;47.658;9.166;2022-08-19T04:26:11;3.57;;;3.30;;
6495;SDS011;3281;47.658;9.166;2022-08-19T04:28:40;2.37;;;2.27;;
6495;SDS011;3281;47.658;9.166;2022-08-19T04:31:11;3.50;;;3.30;;
6495;SDS011;3281;47.658;9.166;2022-08-19T04:33:40;2.83;;;2.73;;
6495;SDS011;3281;47.658;9.166;2022-08-19T04:36:07;3.30;;;3.10;;
6495;SDS011;3281;47.658;9.166;2022-08-19T04:38:41;4.70;;;4.37;;
6495;SDS011;3281;47.658;9.166;2022-08-19T04:41:08;0.00;;;0.00;;
6495;SDS011;3281;47.658;9.166;2022-08-19T04:43:52;2.43;;;2.33;;
6495;SDS011;3281;47.658;9.166;2022-08-19T04:46:18;1.30;;;1.27;;
6495;SDS011;3281;47.658;9.166;2022-08-19T04:48:46;1.87;;;1.80;;
6495;SDS011;3281;47.658;9.166;2022-08-19T04:51:13;6.57;;;6.07;;
6495;SDS011;3281;47.658;9.166;2022-08-19T04:53:41;4.50;;;4.17;;
6495;SDS011;3281;47.658;9.166;2022-08-19T04:56:08;0.00;;;0.00;;
6495;SDS011;3281;47.658;9.166;2022-08-19T04:58:37;0.00;;;0.00;;
6495;SDS011;3281;47.658;9.166;2022-08-19T05:01:06;0.00;;;0.00;;
6495;SDS011;3281;47.658;9.166;2022-08-19T05:03:35;0.00;;;0.00;;
6495;SDS011;3281;47.658;9.166;2022-08-19T05:06:05;0.00;;;0.00;;
6495;SDS011;3281;47.658;9.166;2022-08-19T05:08:33;0.00;;;0.00;;
6495;SDS011;3281;47.658;9.166;2022-08-19T05:11:01;0.00;;;0.00;;
6495;SDS011;3281;47.658;9.166;2022-08-19T05:13:33;0.00;;;0.00;;
6495;SDS011;3281;47.658;9.166;2022-08-19T05:16:00;0.00;;;0.00;;
6495;SDS011;3281;47.658;9.166;2022-08-19T05:18:26;0.00;;;0.00;;
6495;SDS011;3281;47.658;9.166;2022-08-19T05:21:13;0.00;;;0.00;;
6495;SDS011;3281;47.658;9.166;2022-08-19T05:23:59;0.00;;;0.00;;
6495;SDS011;3281;47.658;9.166;2022-08-19T05:26:26;0.00;;;0.00;;
6495;SDS011;3281;47.658;9.166;2022-08-19T05:28:53;0.00;;;0.00;;
6495;SDS011;3281;47.658;9.166;2022-08-19T05:31:20;0.00;;;0.00;;
6495;SDS011;3281;47.658;9.166;2022-08-19T05:33:47;0.03;;;0.03;;
6495;SDS011;3281;47.658;9.166;2022-08-19T05:36:16;0.00;;;0.00;;
6495;SDS011;3281;47.658;9.166;2022-08-19T05:38:44;0.00;;;0.00;;
6495;SDS011;3281;47.658;9.166;2022-08-19T05:41:12;0.00;;;0.00;;
6495;SDS011;3281;47.658;9.166;2022-08-19T05:43:41;0.00;;;0.00;;
6495;SDS011;3281;47.658;9.166;2022-08-19T05:46:08;0.00;;;0.00;;
6495;SDS011;3281;47.658;9.166;2022-08-19T05:48:43;0.00;;;0.00;;
6495;SDS011;3281;47.658;9.166;2022-08-19T05:51:10;0.00;;;0.00;;
6495;SDS011;3281;47.658;9.166;2022-08-19T05:53:38;0.00;;;0.00;;
6495;SDS011;3281;47.658;9.166;2022-08-19T05:56:05;0.00;;;0.00;;
6495;SDS011;3281;47.658;9.166;2022-08-19T05:58:32;0.00;;;0.00;;
6495;SDS011;3281;47.658;9.166;2022-08-19T06:00:59;0.00;;;0.00;;
6495;SDS011;3281;47.658;9.166;2022-08-19T06:03:29;0.00;;;0.00;;
6495;SDS011;3281;47.658;9.166;2022-08-19T06:05:56;0.00;;;0.00;;
6495;SDS011;3281;47.658;9.166;2022-08-19T06:08:24;0.00;;;0.00;;
6495;SDS011;3281;47.658;9.166;2022-08-19T06:10:53;0.00;;;0.00;;
6495;SDS011;3281;47.658;9.166;2022-08-19T06:13:20;0.00;;;0.00;;
6495;SDS011;3281;47.658;9.166;2022-08-19T06:15:47;0.00;;;0.00;;
6495;SDS011;3281;47.658;9.166;2022-08-19T06:18:15;0.00;;;0.00;;
6495;SDS011;3281;47.658;9.166;2022-08-19T06:20:42;0.00;;;0.00;;
6495;SDS011;3281;47.658;9.166;2022-08-19T06:23:09;0.00;;;0.00;;
6495;SDS011;3281;47.658;9.166;2022-08-19T06:25:35;0.00;;;0.00;;
6495;SDS011;3281;47.658;9.166;2022-08-19T06:28:06;0.00;;;0.00;;
6495;SDS011;3281;47.658;9.166;2022-08-19T06:30:33;0.00;;;0.00;;
6495;SDS011;3281;47.658;9.166;2022-08-19T06:32:59;0.00;;;0.00;;
6495;SDS011;3281;47.658;9.166;2022-08-19T06:35:26;0.00;;;0.00;;
6495;SDS011;3281;47.658;9.166;2022-08-19T06:37:54;0.00;;;0.00;;
6495;SDS011;3281;47.658;9.166;2022-08-19T06:40:21;0.00;;;0.00;;
6495;SDS011;3281;47.658;9.166;2022-08-19T06:42:48;0.00;;;0.00;;
6495;SDS011;3281;47.658;9.166;2022-08-19T06:45:16;0.00;;;0.00;;
6495;SDS011;3281;47.658;9.166;2022-08-19T06:47:43;0.00;;;0.00;;
6495;SDS011;3281;47.658;9.166;2022-08-19T06:50:11;0.00;;;0.00;;
6495;SDS011;3281;47.658;9.166;2022-08-19T06:52:37;0.00;;;0.00;;
6495;SDS011;3281;47.658;9.166;2022-08-19T06:55:05;0.00;;;0.00;;
6495;SDS011;3281;47.658;9.166;2022-08-19T06:57:32;0.00;;;0.00;;
6495;SDS011;3281;47.658;9.166;2022-08-19T07:00:00;0.00;;;0.00;;
6495;SDS011;3281;47.658;9.166;2022-08-19T07:02:28;0.00;;;0.00;;
6495;SDS011;3281;47.658;9.166;2022-08-19T07:04:55;0.00;;;0.00;;
6495;SDS011;3281;47.658;9.166;2022-08-19T07:07:23;0.00;;;0.00;;
6495;SDS011;3281;47.658;9.166;2022-08-19T07:09:50;0.00;;;0.00;;
6495;SDS011;3281;47.658;9.166;2022-08-19T07:12:18;0.00;;;0.00;;
6495;SDS011;3281;47.658;9.166;2022-08-19T07:14:44;0.00;;;0.00;;
6495;SDS011;3281;47.658;9.166;2022-08-19T07:17:14;0.00;;;0.00;;
6495;SDS011;3281;47.658;9.166;2022-08-19T07:19:42;0.00;;;0.00;;
6495;SDS011;3281;47.658;9.166;2022-08-19T07:22:09;0.93;;;0.93;;
6495;SDS011;3281;47.658;9.166;2022-08-19T07:24:36;0.00;;;0.00;;
6495;SDS011;3281;47.658;9.166;2022-08-19T07:27:04;0.00;;;0.00;;
6495;SDS011;3281;47.658;9.166;2022-08-19T07:29:32;0.00;;;0.00;;
6495;SDS011;3281;47.658;9.166;2022-08-19T07:32:01;0.00;;;0.00;;
6495;SDS011;3281;47.658;9.166;2022-08-19T07:34:30;0.00;;;0.00;;
6495;SDS011;3281;47.658;9.166;2022-08-19T07:37:00;0.00;;;0.00;;
6495;SDS011;3281;47.658;9.166;2022-08-19T07:39:29;0.00;;;0.00;;
6495;SDS011;3281;47.658;9.166;2022-08-19T07:41:59;0.00;;;0.00;;
6495;SDS011;3281;47.658;9.166;2022-08-19T07:44:28;0.00;;;0.00;;
6495;SDS011;3281;47.658;9.166;2022-08-19T07:46:56;0.00;;;0.00;;
6495;SDS011;3281;47.658;9.166;2022-08-19T07:49:25;0.00;;;0.00;;
6495;SDS011;3281;47.658;9.166;2022-08-19T07:51:52;0.00;;;0.00;;
6495;SDS011;3281;47.658;9.166;2022-08-19T07:54:23;0.00;;;0.00;;
6495;SDS011;3281;47.658;9.166;2022-08-19T07:56:52;0.00;;;0.00;;
6495;SDS011;3281;47.658;9.166;2022-08-19T07:59:18;0.00;;;0.00;;
6495;SDS011;3281;47.658;9.166;2022-08-19T08:01:46;0.00;;;0.00;;
6495;SDS011;3281;47.658;9.166;2022-08-19T08:04:15;0.00;;;0.00;;
6495;SDS011;3281;47.658;9.166;2022-08-19T08:06:59;0.00;;;0.00;;
6495;SDS011;3281;47.658;9.166;2022-08-19T08:09:45;0.00;;;0.00;;
6495;SDS011;3281;47.658;9.166;2022-08-19T08:12:13;0.00;;;0.00;;
6495;SDS011;3281;47.658;9.166;2022-08-19T08:14:43;0.00;;;0.00;;
6495;SDS011;3281;47.658;9.166;2022-08-19T08:17:12;0.00;;;0.00;;
6495;SDS011;3281;47.658;9.166;2022-08-19T08:19:39;0.00;;;0.00;;
6495;SDS011;3281;47.658;9.166;2022-08-19T08:22:07;0.00;;;0.00;;
6495;SDS011;3281;47.658;9.166;2022-08-19T08:24:57;0.00;;;0.00;;
6495;SDS011;3281;47.658;9.166;2022-08-19T08:27:28;0.00;;;0.00;;
6495;SDS011;3281;47.658;9.166;2022-08-19T08:29:56;0.00;;;0.00;;
6495;SDS011;3281;47.658;9.166;2022-08-19T08:32:22;0.00;;;0.00;;
6495;SDS011;3281;47.658;9.166;2022-08-19T08:34:49;0.00;;;0.00;;
6495;SDS011;3281;47.658;9.166;2022-08-19T08:37:16;5.13;;;4.83;;
6495;SDS011;3281;47.658;9.166;2022-08-19T08:39:43;1.03;;;1.03;;
6495;SDS011;3281;47.658;9.166;2022-08-19T08:42:11;0.80;;;0.80;;
6495;SDS011;3281;47.658;9.166;2022-08-19T08:44:47;4.33;;;3.93;;
6495;SDS011;3281;47.658;9.166;2022-08-19T08:47:20;5.40;;;4.90;;
6495;SDS011;3281;47.658;9.166;2022-08-19T08:49:50;2.10;;;1.97;;
6495;SDS011;3281;47.658;9.166;2022-08-19T08:52:21;3.37;;;3.27;;
6495;SDS011;3281;47.658;9.166;2022-08-19T08:54:51;3.20;;;3.00;;
6495;SDS011;3281;47.658;9.166;2022-08-19T08:57:23;1.90;;;1.90;;
6495;SDS011;3281;47.658;9.166;2022-08-19T08:59:54;3.23;;;3.03;;
6495;SDS011;3281;47.658;9.166;2022-08-19T09:02:24;5.03;;;4.70;;
6495;SDS011;3281;47.658;9.166;2022-08-19T09:04:51;12.70;;;11.93;;
6495;SDS011;3281;47.658;9.166;2022-08-19T09:07:22;23.50;;;22.10;;
6495;SDS011;3281;47.658;9.166;2022-08-19T09:09:56;42.30;;;39.37;;
6495;SDS011;3281;47.658;9.166;2022-08-19T09:12:37;22.27;;;21.03;;
6495;SDS011;3281;47.658;9.166;2022-08-19T09:15:15;9.70;;;9.07;;
6495;SDS011;3281;47.658;9.166;2022-08-19T09:17:54;44.13;;;41.83;;
6495;SDS011;3281;47.658;9.166;2022-08-19T09:20:24;18.73;;;17.83;;
6495;SDS011;3281;47.658;9.166;2022-08-19T09:22:51;17.70;;;14.93;;
6495;SDS011;3281;47.658;9.166;2022-08-19T09:25:19;10.93;;;10.13;;
6495;SDS011;3281;47.658;9.166;2022-08-19T09:27:49;21.80;;;20.47;;
6495;SDS011;3281;47.658;9.166;2022-08-19T09:30:19;11.47;;;10.77;;
6495;SDS011;3281;47.658;9.166;2022-08-19T09:32:49;19.77;;;18.67;;
6495;SDS011;3281;47.658;9.166;2022-08-19T09:35:18;24.47;;;22.30;;
6495;SDS011;3281;47.658;9.166;2022-08-19T09:37:47;13.30;;;12.20;;
6495;SDS011;3281;47.658;9.166;2022-08-19T09:40:15;12.57;;;10.70;;
6495;SDS011;3281;47.658;9.166;2022-08-19T09:42:42;14.97;;;13.63;;
6495;SDS011;3281;47.658;9.166;2022-08-19T09:45:13;8.50;;;7.80;;
6495;SDS011;3281;47.658;9.166;2022-08-19T09:47:40;15.03;;;2.20;;
6495;SDS011;3281;47.658;9.166;2022-08-19T09:50:08;13.70;;;12.90;;
6495;SDS011;3281;47.658;9.166;2022-08-19T09:52:37;14.10;;;13.13;;
6495;SDS011;3281;47.658;9.166;2022-08-19T09:55:05;6.60;;;6.10;;
6495;SDS011;3281;47.658;9.166;2022-08-19T09:57:33;19.03;;;17.60;;
6495;SDS011;3281;47.658;9.166;2022-08-19T10:00:00;9.77;;;9.00;;
6495;SDS011;3281;47.658;9.166;2022-08-19T10:02:28;4.10;;;3.80;;
6495;SDS011;3281;47.658;9.166;2022-08-19T10:04:55;7.47;;;6.93;;
6495;SDS011;3281;47.658;9.166;2022-08-19T10:07:40;7.13;;;6.67;;
6495;SDS011;3281;47.658;9.166;2022-08-19T10:10:07;8.60;;;8.03;;
6495;SDS011;3281;47.658;9.166;2022-08-19T10:12:35;7.57;;;7.17;;
6495;SDS011;3281;47.658;9.166;2022-08-19T10:15:03;8.13;;;5.60;;
6495;SDS011;3281;47.658;9.166;2022-08-19T10:17:33;5.83;;;5.43;;
6495;SDS011;3281;47.658;9.166;2022-08-19T10:20:00;7.83;;;7.33;;
6495;SDS011;3281;47.658;9.166;2022-08-19T10:22:28;14.73;;;13.73;;
6495;SDS011;3281;47.658;9.166;2022-08-19T10:24:55;8.03;;;7.40;;
6495;SDS011;3281;47.658;9.166;2022-08-19T10:27:22;9.57;;;8.97;;
6495;SDS011;3281;47.658;9.166;2022-08-19T10:29:49;8.03;;;7.57;;
6495;SDS011;3281;47.658;9.166;2022-08-19T10:32:16;8.73;;;8.17;;
6495;SDS011;3281;47.658;9.166;2022-08-19T10:34:44;8.43;;;8.03;;
6495;SDS011;3281;47.658;9.166;2022-08-19T10:37:11;6.33;;;6.00;;
6495;SDS011;3281;47.658;9.166;2022-08-19T10:39:38;13.87;;;13.07;;
6495;SDS011;3281;47.658;9.166;2022-08-19T10:42:05;15.67;;;14.83;;
6495;SDS011;3281;47.658;9.166;2022-08-19T10:44:35;5.07;;;4.80;;
6495;SDS011;3281;47.658;9.166;2022-08-19T10:47:02;11.77;;;11.10;;
6495;SDS011;3281;47.658;9.166;2022-08-19T10:49:30;10.83;;;9.93;;
6495;SDS011;3281;47.658;9.166;2022-08-19T10:52:19;3.20;;;3.07;;
6495;SDS011;3281;47.658;9.166;2022-08-19T10:55:00;4.80;;;4.60;;
6495;SDS011;3281;47.658;9.166;2022-08-19T10:57:44;6.10;;;5.67;;
6495;SDS011;3281;47.658;9.166;2022-08-19T11:00:11;6.97;;;6.63;;
6495;SDS011;3281;47.658;9.166;2022-08-19T11:02:39;8.30;;;7.80;;
6495;SDS011;3281;47.658;9.166;2022-08-19T11:05:06;10.37;;;6.17;;
6495;SDS011;3281;47.658;9.166;2022-08-19T11:07:37;7.40;;;6.90;;
6495;SDS011;3281;47.658;9.166;2022-08-19T11:10:05;6.73;;;6.33;;
6495;SDS011;3281;47.658;9.166;2022-08-19T11:12:33;6.33;;;5.93;;
6495;SDS011;3281;47.658;9.166;2022-08-19T11:15:04;3.07;;;2.80;;
6495;SDS011;3281;47.658;9.166;2022-08-19T11:17:32;1.50;;;1.50;;
6495;SDS011;3281;47.658;9.166;2022-08-19T11:20:00;0.40;;;0.40;;
6495;SDS011;3281;47.658;9.166;2022-08-19T11:22:29;8.93;;;8.53;;
6495;SDS011;3281;47.658;9.166;2022-08-19T11:24:57;12.33;;;11.50;;
6495;SDS011;3281;47.658;9.166;2022-08-19T11:27:24;7.53;;;6.97;;
6495;SDS011;3281;47.658;9.166;2022-08-19T11:29:51;26.47;;;25.30;;
6495;SDS011;3281;47.658;9.166;2022-08-19T11:32:18;9.63;;;8.97;;
6495;SDS011;3281;47.658;9.166;2022-08-19T11:34:45;5.90;;;5.60;;
6495;SDS011;3281;47.658;9.166;2022-08-19T11:37:11;5.60;;;4.23;;
6495;SDS011;3281;47.658;9.166;2022-08-19T11:39:38;2.63;;;2.43;;
6495;SDS011;3281;47.658;9.166;2022-08-19T11:42:07;10.43;;;9.67;;
6495;SDS011;3281;47.658;9.166;2022-08-19T11:44:48;7.30;;;6.87;;
6495;SDS011;3281;47.658;9.166;2022-08-19T11:47:14;4.23;;;3.93;;
6495;SDS011;3281;47.658;9.166;2022-08-19T11:49:41;4.00;;;3.80;;
6495;SDS011;3281;47.658;9.166;2022-08-19T11:52:08;8.67;;;7.83;;
6495;SDS011;3281;47.658;9.166;2022-08-19T11:54:35;11.33;;;10.50;;
6495;SDS011;3281;47.658;9.166;2022-08-19T11:57:02;7.77;;;5.23;;
6495;SDS011;3281;47.658;9.166;2022-08-19T11:59:31;3.40;;;2.03;;
6495;SDS011;3281;47.658;9.166;2022-08-19T12:01:58;0.00;;;0.00;;
6495;SDS011;3281;47.658;9.166;2022-08-19T12:04:24;0.00;;;0.00;;
6495;SDS011;3281;47.658;9.166;2022-08-19T12:06:51;0.00;;;0.00;;
6495;SDS011;3281;47.658;9.166;2022-08-19T12:09:18;0.00;;;0.00;;
6495;SDS011;3281;47.658;9.166;2022-08-19T12:11:45;0.00;;;0.00;;
6495;SDS011;3281;47.658;9.166;2022-08-19T12:14:12;0.00;;;0.00;;
6495;SDS011;3281;47.658;9.166;2022-08-19T12:16:40;0.00;;;0.00;;
6495;SDS011;3281;47.658;9.166;2022-08-19T12:19:07;0.00;;;0.00;;
6495;SDS011;3281;47.658;9.166;2022-08-19T12:21:35;0.00;;;0.00;;
6495;SDS011;3281;47.658;9.166;2022-08-19T12:24:02;0.00;;;0.00;;
6495;SDS011;3281;47.658;9.166;2022-08-19T12:26:31;0.00;;;0.00;;
6495;SDS011;3281;47.658;9.166;2022-08-19T12:28:58;0.00;;;0.00;;
6495;SDS011;3281;47.658;9.166;2022-08-19T12:31:25;0.00;;;0.00;;
6495;SDS011;3281;47.658;9.166;2022-08-19T12:33:54;0.00;;;0.00;;
6495;SDS011;3281;47.658;9.166;2022-08-19T12:36:21;0.00;;;0.00;;
6495;SDS011;3281;47.658;9.166;2022-08-19T12:38:48;0.00;;;0.00;;
6495;SDS011;3281;47.658;9.166;2022-08-19T12:41:15;0.00;;;0.00;;
6495;SDS011;3281;47.658;9.166;2022-08-19T12:43:43;0.00;;;0.00;;
6495;SDS011;3281;47.658;9.166;2022-08-19T12:46:13;0.00;;;0.00;;
6495;SDS011;3281;47.658;9.166;2022-08-19T12:48:40;0.00;;;0.00;;
6495;SDS011;3281;47.658;9.166;2022-08-19T12:51:10;0.00;;;0.00;;
6495;SDS011;3281;47.658;9.166;2022-08-19T12:53:38;0.00;;;0.00;;
6495;SDS011;3281;47.658;9.166;2022-08-19T12:56:05;0.00;;;0.00;;
6495;SDS011;3281;47.658;9.166;2022-08-19T12:58:33;0.00;;;0.00;;
6495;SDS011;3281;47.658;9.166;2022-08-19T13:01:05;0.00;;;0.00;;
6495;SDS011;3281;47.658;9.166;2022-08-19T13:03:32;0.00;;;0.00;;
6495;SDS011;3281;47.658;9.166;2022-08-19T13:06:00;0.00;;;0.00;;
6495;SDS011;3281;47.658;9.166;2022-08-19T13:08:28;0.00;;;0.00;;
6495;SDS011;3281;47.658;9.166;2022-08-19T13:10:55;0.00;;;0.00;;
6495;SDS011;3281;47.658;9.166;2022-08-19T13:13:23;0.00;;;0.00;;
6495;SDS011;3281;47.658;9.166;2022-08-19T13:15:50;0.00;;;0.00;;
6495;SDS011;3281;47.658;9.166;2022-08-19T13:18:18;0.00;;;0.00;;
6495;SDS011;3281;47.658;9.166;2022-08-19T13:20:44;0.00;;;0.00;;
6495;SDS011;3281;47.658;9.166;2022-08-19T13:23:11;0.00;;;0.00;;
6495;SDS011;3281;47.658;9.166;2022-08-19T13:25:39;0.00;;;0.00;;
6495;SDS011;3281;47.658;9.166;2022-08-19T13:28:06;0.00;;;0.00;;
6495;SDS011;3281;47.658;9.166;2022-08-19T13:30:33;0.00;;;0.00;;
6495;SDS011;3281;47.658;9.166;2022-08-19T13:33:17;0.00;;;0.00;;
6495;SDS011;3281;47.658;9.166;2022-08-19T13:35:46;0.00;;;0.00;;
6495;SDS011;3281;47.658;9.166;2022-08-19T13:38:15;0.00;;;0.00;;
6495;SDS011;3281;47.658;9.166;2022-08-19T13:40:45;0.00;;;0.00;;
6495;SDS011;3281;47.658;9.166;2022-08-19T13:43:12;0.00;;;0.00;;
6495;SDS011;3281;47.658;9.166;2022-08-19T13:45:40;0.00;;;0.00;;
6495;SDS011;3281;47.658;9.166;2022-08-19T13:48:07;0.00;;;0.00;;
6495;SDS011;3281;47.658;9.166;2022-08-19T13:50:37;0.00;;;0.00;;
6495;SDS011;3281;47.658;9.166;2022-08-19T13:53:06;0.00;;;0.00;;
6495;SDS011;3281;47.658;9.166;2022-08-19T13:55:34;0.00;;;0.00;;
6495;SDS011;3281;47.658;9.166;2022-08-19T13:58:02;0.00;;;0.00;;
6495;SDS011;3281;47.658;9.166;2022-08-19T14:00:31;0.00;;;0.00;;
6495;SDS011;3281;47.658;9.166;2022-08-19T14:02:59;0.00;;;0.00;;
6495;SDS011;3281;47.658;9.166;2022-08-19T14:05:26;0.00;;;0.00;;
6495;SDS011;3281;47.658;9.166;2022-08-19T14:07:56;0.00;;;0.00;;
6495;SDS011;3281;47.658;9.166;2022-08-19T14:10:24;0.00;;;0.00;;
6495;SDS011;3281;47.658;9.166;2022-08-19T14:12:52;0.00;;;0.00;;
6495;SDS011;3281;47.658;9.166;2022-08-19T14:15:22;0.00;;;0.00;;
6495;SDS011;3281;47.658;9.166;2022-08-19T14:17:49;0.00;;;0.00;;
6495;SDS011;3281;47.658;9.166;2022-08-19T14:20:16;0.00;;;0.00;;
6495;SDS011;3281;47.658;9.166;2022-08-19T14:22:43;0.00;;;0.00;;
6495;SDS011;3281;47.658;9.166;2022-08-19T14:25:12;0.00;;;0.00;;
6495;SDS011;3281;47.658;9.166;2022-08-19T14:27:41;0.00;;;0.00;;
6495;SDS011;3281;47.658;9.166;2022-08-19T14:30:08;0.00;;;0.00;;
6495;SDS011;3281;47.658;9.166;2022-08-19T14:32:38;0.00;;;0.00;;
6495;SDS011;3281;47.658;9.166;2022-08-19T14:35:08;0.00;;;0.00;;
6495;SDS011;3281;47.658;9.166;2022-08-19T14:37:37;0.00;;;0.00;;
6495;SDS011;3281;47.658;9.166;2022-08-19T14:40:05;0.00;;;0.00;;
6495;SDS011;3281;47.658;9.166;2022-08-19T14:42:33;0.00;;;0.00;;
6495;SDS011;3281;47.658;9.166;2022-08-19T14:45:00;0.00;;;0.00;;
6495;SDS011;3281;47.658;9.166;2022-08-19T14:47:27;0.00;;;0.00;;
6495;SDS011;3281;47.658;9.166;2022-08-19T14:49:55;0.00;;;0.00;;
6495;SDS011;3281;47.658;9.166;2022-08-19T14:52:22;0.00;;;0.00;;
6495;SDS011;3281;47.658;9.166;2022-08-19T14:54:48;0.00;;;0.00;;
6495;SDS011;3281;47.658;9.166;2022-08-19T14:57:16;0.00;;;0.00;;
6495;SDS011;3281;47.658;9.166;2022-08-19T14:59:43;0.00;;;0.00;;
6495;SDS011;3281;47.658;9.166;2022-08-19T15:02:10;0.00;;;0.00;;
6495;SDS011;3281;47.658;9.166;2022-08-19T15:04:37;0.00;;;0.00;;
6495;SDS011;3281;47.658;9.166;2022-08-19T15:07:05;0.00;;;0.00;;
6495;SDS011;3281;47.658;9.166;2022-08-19T15:09:32;0.00;;;0.00;;
6495;SDS011;3281;47.658;9.166;2022-08-19T15:12:00;0.00;;;0.00;;
6495;SDS011;3281;47.658;9.166;2022-08-19T15:14:29;0.00;;;0.00;;
6495;SDS011;3281;47.658;9.166;2022-08-19T15:16:59;0.00;;;0.00;;
6495;SDS011;3281;47.658;9.166;2022-08-19T15:19:27;0.00;;;0.00;;
6495;SDS011;3281;47.658;9.166;2022-08-19T15:21:54;0.00;;;0.00;;